Airfield :
LOGIN :

Register | Disclaimer

   EN    FR    IT 

 










Legend :    VFR   Marginal VFR   IFR   Intensive IFR   Very Intensive IFR
Visi :
Ceiling :
>= 8 km
>= 3000ft
5 to 8 km
1000 to 3000 ft
1500m to 5 km
500 to 1000 ft
800 to 1500m
200 to 500 ft
< 800m
< 200 ft
Symbols :   Thunderstorms  Fog  Heavy snow  Heavy precipitations  Wind > 20 kt
SIGMETs :     Misc.  Thunderstorms  Icing  Turbulence  Mountain Waves  Volcanic Ashes






- Airport Elevation : 74 ft
- IATA code : MRS


LFML - Marseille / Marignane

CURRENT METAR :
  • 121500Z AUTO 20011KT CAVOK 31/14 Q1014 NOSIG

EXPIRED METARs :
  • 121430Z AUTO 18007KT 140V200 CAVOK 31/15 Q1014 NOSIG
  • 121400Z AUTO 20011KT CAVOK 32/14 Q1014 NOSIG
  • 121330Z AUTO 18009KT 140V210 CAVOK 33/13 Q1015 NOSIG
  • 121300Z AUTO 17011KT CAVOK 33/13 Q1015 NOSIG
  • 121230Z AUTO 18012KT CAVOK 33/13 Q1015 NOSIG

TAF TAF LFML
Valid from the 12 at 15:00 until the 13 at 21:00 UTC


121400Z 1215/1321 17010KT CAVOK TX32/1312Z TN22/1303Z
BECMG 1219/1221 VRB03KT
PROB40
TEMPO 1221/1306 SHRA SCT090TCU
PROB30
TEMPO 1221/1306 -TSRA SCT080CB
BECMG 1309/1311 19010KT
TEMPO 1312/1316 19015G25KT
BECMG 1319/1321 VRB03KT
ATIS : +33 4 42 31 15 15



MET'MAP, your aeronautical weather chart ! - Copyright ORBIFLY December 2007 - Disclaimer

ORBIFLY MET'MAP TEAM :

Programming & Development : Alexandra Zaïnal
Concept & original design : Baudouin d'Aumeries
Assistance for programming : Marc-Olivier Méhu
Technical & hardware support : Manuel Goepfert

Contact : metmap@orbifly.com




SOURCES & CREDITS :

   NOAA